ADDS METAR Data INFO
IDs: Format: Raw Decoded Include TAF

Data at: 2210 UTC 18 Oct 2017

METAR for:KX60 (Williston Muni, FL, US)
Text:KX60 182155Z AUTO VRB05G13KT 9SM CLR 28/17 A3012 RMK A01
Temperature: 28.0°C ( 82°F)
Dewpoint: 17.0°C ( 63°F) [RH = 51%]
Pressure (altimeter):30.12 inches Hg (1020.1 mb)
Winds:variable direction winds at 6 MPH (5 knots; 2.6 m/s) gusting to 15 MPH (13 knots; 6.7 m/s)
Visibility: 9 sm ( 14 km)
Ceiling:at least 12,000 feet AGL
Clouds:sky clear below 12,000 feet AGL
QC Flag:automated observation with no human augmentation